sensor_id;sensor_type;location;lat;lon;timestamp;pressure;altitude;pressure_sealevel;temperature;humidity
35649;BME280;21768;48.562;13.414;2024-03-23T00:51:13;96723.13;;;12.61;66.30
35649;BME280;21768;48.562;13.414;2024-03-23T00:56:04;96712.06;;;12.59;66.48
35649;BME280;21768;48.562;13.414;2024-03-23T00:58:30;96712.06;;;12.59;66.33
35649;BME280;21768;48.562;13.414;2024-03-23T01:00:55;96713.91;;;12.63;66.51
35649;BME280;21768;48.562;13.414;2024-03-23T01:03:21;96715.59;;;12.63;66.54
35649;BME280;21768;48.562;13.414;2024-03-23T01:05:46;96708.94;;;12.65;66.43
35649;BME280;21768;48.562;13.414;2024-03-23T01:08:14;96709.47;;;12.57;66.74
35649;BME280;21768;48.562;13.414;2024-03-23T01:10:39;96702.59;;;12.55;66.83
35649;BME280;21768;48.562;13.414;2024-03-23T01:13:05;96697.47;;;12.53;66.83
35649;BME280;21768;48.562;13.414;2024-03-23T01:15:30;96704.25;;;12.54;66.75
35649;BME280;21768;48.562;13.414;2024-03-23T01:17:56;96701.66;;;12.53;66.85
35649;BME280;21768;48.562;13.414;2024-03-23T01:20:21;96699.84;;;12.50;66.90
35649;BME280;21768;48.562;13.414;2024-03-23T01:22:47;96700.66;;;12.49;67.06
35649;BME280;21768;48.562;13.414;2024-03-23T01:25:12;96699.00;;;12.50;66.80
35649;BME280;21768;48.562;13.414;2024-03-23T01:27:38;96690.31;;;12.45;67.21
35649;BME280;21768;48.562;13.414;2024-03-23T01:30:03;96699.28;;;12.38;67.29
35649;BME280;21768;48.562;13.414;2024-03-23T01:32:29;96688.91;;;12.32;67.50
35649;BME280;21768;48.562;13.414;2024-03-23T01:34:54;96690.03;;;12.21;67.73
35649;BME280;21768;48.562;13.414;2024-03-23T01:37:25;96687.09;;;12.12;67.64
35649;BME280;21768;48.562;13.414;2024-03-23T01:39:51;96693.53;;;12.05;68.09
35649;BME280;21768;48.562;13.414;2024-03-23T01:42:17;96688.03;;;11.96;68.15
35649;BME280;21768;48.562;13.414;2024-03-23T01:44:42;96691.91;;;11.89;68.03
35649;BME280;21768;48.562;13.414;2024-03-23T01:47:08;96693.22;;;11.81;68.08
35649;BME280;21768;48.562;13.414;2024-03-23T01:49:34;96691.34;;;11.77;68.06
35649;BME280;21768;48.562;13.414;2024-03-23T01:52:01;96690.03;;;11.69;68.15
35649;BME280;21768;48.562;13.414;2024-03-23T01:54:27;96692.22;;;11.62;68.34
35649;BME280;21768;48.562;13.414;2024-03-23T01:56:54;96682.44;;;11.51;68.52
35649;BME280;21768;48.562;13.414;2024-03-23T01:59:19;96677.72;;;11.41;68.60
35649;BME280;21768;48.562;13.414;2024-03-23T02:01:45;96676.25;;;11.29;68.77
35649;BME280;21768;48.562;13.414;2024-03-23T02:04:10;96675.78;;;11.19;68.99
35649;BME280;21768;48.562;13.414;2024-03-23T02:06:36;96667.91;;;11.13;69.43
35649;BME280;21768;48.562;13.414;2024-03-23T02:09:02;96668.56;;;11.09;69.32
35649;BME280;21768;48.562;13.414;2024-03-23T02:11:28;96653.88;;;11.02;69.54
35649;BME280;21768;48.562;13.414;2024-03-23T02:13:54;96654.41;;;10.97;69.52
35649;BME280;21768;48.562;13.414;2024-03-23T02:16:20;96648.06;;;10.87;69.65
35649;BME280;21768;48.562;13.414;2024-03-23T02:18:45;96644.44;;;10.82;69.75
35649;BME280;21768;48.562;13.414;2024-03-23T02:21:11;96641.59;;;10.76;69.89
35649;BME280;21768;48.562;13.414;2024-03-23T02:23:36;96626.91;;;10.69;70.06
35649;BME280;21768;48.562;13.414;2024-03-23T02:26:02;96636.75;;;10.64;70.23
35649;BME280;21768;48.562;13.414;2024-03-23T02:28:28;96638.28;;;10.61;70.58
35649;BME280;21768;48.562;13.414;2024-03-23T02:30:53;96640.88;;;10.62;70.61
35649;BME280;21768;48.562;13.414;2024-03-23T02:33:19;96631.56;;;10.61;70.62
35649;BME280;21768;48.562;13.414;2024-03-23T02:35:45;96623.94;;;10.60;70.75
35649;BME280;21768;48.562;13.414;2024-03-23T02:38:11;96629.59;;;10.55;70.59
35649;BME280;21768;48.562;13.414;2024-03-23T02:40:36;96619.19;;;10.49;70.56
35649;BME280;21768;48.562;13.414;2024-03-23T02:43:04;96613.81;;;10.43;70.73
35649;BME280;21768;48.562;13.414;2024-03-23T02:45:30;96609.25;;;10.36;70.74
35649;BME280;21768;48.562;13.414;2024-03-23T02:47:56;96612.41;;;10.32;71.12
35649;BME280;21768;48.562;13.414;2024-03-23T02:50:22;96605.53;;;10.30;71.33
35649;BME280;21768;48.562;13.414;2024-03-23T02:52:48;96612.94;;;10.27;71.36
35649;BME280;21768;48.562;13.414;2024-03-23T02:55:14;96612.16;;;10.28;71.53
35649;BME280;21768;48.562;13.414;2024-03-23T02:57:39;96610.31;;;10.25;71.51
35649;BME280;21768;48.562;13.414;2024-03-23T03:00:05;96608.69;;;10.26;71.38
35649;BME280;21768;48.562;13.414;2024-03-23T03:02:32;96601.91;;;10.25;71.11
35649;BME280;21768;48.562;13.414;2024-03-23T03:04:58;96602.44;;;10.19;71.36
35649;BME280;21768;48.562;13.414;2024-03-23T03:07:23;96597.06;;;10.13;71.57
35649;BME280;21768;48.562;13.414;2024-03-23T03:09:49;96594.19;;;10.07;71.65
35649;BME280;21768;48.562;13.414;2024-03-23T03:12:14;96580.47;;;10.02;71.67
35649;BME280;21768;48.562;13.414;2024-03-23T03:14:40;96580.22;;;9.97;71.65
35649;BME280;21768;48.562;13.414;2024-03-23T03:17:05;96580.75;;;9.92;71.91
35649;BME280;21768;48.562;13.414;2024-03-23T03:19:31;96574.72;;;9.88;72.13
35649;BME280;21768;48.562;13.414;2024-03-23T03:21:57;96574.63;;;9.86;72.25
35649;BME280;21768;48.562;13.414;2024-03-23T03:24:24;96575.34;;;9.84;72.50
35649;BME280;21768;48.562;13.414;2024-03-23T03:26:50;96575.25;;;9.82;72.57
35649;BME280;21768;48.562;13.414;2024-03-23T03:29:16;96578.63;;;9.83;72.87
35649;BME280;21768;48.562;13.414;2024-03-23T03:31:42;96583.75;;;9.84;72.62
35649;BME280;21768;48.562;13.414;2024-03-23T03:34:08;96574.56;;;9.85;72.58
35649;BME280;21768;48.562;13.414;2024-03-23T03:36:33;96573.69;;;9.84;72.43
35649;BME280;21768;48.562;13.414;2024-03-23T03:38:59;96577.00;;;9.83;72.27
35649;BME280;21768;48.562;13.414;2024-03-23T03:41:25;96569.34;;;9.82;72.15
35649;BME280;21768;48.562;13.414;2024-03-23T03:43:51;96564.06;;;9.77;72.14
35649;BME280;21768;48.562;13.414;2024-03-23T03:46:16;96562.06;;;9.72;72.31
35649;BME280;21768;48.562;13.414;2024-03-23T03:48:42;96564.31;;;9.67;72.32
35649;BME280;21768;48.562;13.414;2024-03-23T03:51:10;96557.41;;;9.63;72.70
35649;BME280;21768;48.562;13.414;2024-03-23T03:53:36;96557.25;;;9.60;72.18
35649;BME280;21768;48.562;13.414;2024-03-23T03:56:02;96550.38;;;9.58;72.33
35649;BME280;21768;48.562;13.414;2024-03-23T03:58:28;96541.09;;;9.57;72.33
35649;BME280;21768;48.562;13.414;2024-03-23T04:00:54;96543.34;;;9.52;72.40
35649;BME280;21768;48.562;13.414;2024-03-23T04:03:19;96544.75;;;9.47;72.58
35649;BME280;21768;48.562;13.414;2024-03-23T04:05:52;96536.72;;;9.38;72.74
35649;BME280;21768;48.562;13.414;2024-03-23T04:08:19;96534.97;;;9.37;72.89
35649;BME280;21768;48.562;13.414;2024-03-23T04:10:44;96539.22;;;9.38;72.68
35649;BME280;21768;48.562;13.414;2024-03-23T04:13:11;96534.19;;;9.38;72.71
35649;BME280;21768;48.562;13.414;2024-03-23T04:15:37;96520.66;;;9.36;73.05
35649;BME280;21768;48.562;13.414;2024-03-23T04:18:02;96523.88;;;9.33;73.04
35649;BME280;21768;48.562;13.414;2024-03-23T04:20:28;96528.81;;;9.32;72.82
35649;BME280;21768;48.562;13.414;2024-03-23T04:22:54;96525.34;;;9.30;72.94
35649;BME280;21768;48.562;13.414;2024-03-23T04:25:19;96524.38;;;9.28;73.09
35649;BME280;21768;48.562;13.414;2024-03-23T04:27:45;96525.00;;;9.24;73.04
35649;BME280;21768;48.562;13.414;2024-03-23T04:30:11;96514.75;;;9.20;73.10
35649;BME280;21768;48.562;13.414;2024-03-23T04:32:37;96521.34;;;9.18;72.97
35649;BME280;21768;48.562;13.414;2024-03-23T04:35:03;96516.19;;;9.15;72.96
35649;BME280;21768;48.562;13.414;2024-03-23T04:37:32;96525.38;;;9.15;73.02
35649;BME280;21768;48.562;13.414;2024-03-23T04:40:00;96531.97;;;9.13;72.84
35649;BME280;21768;48.562;13.414;2024-03-23T04:42:26;96525.13;;;9.10;72.79
35649;BME280;21768;48.562;13.414;2024-03-23T04:44:53;96525.81;;;9.08;72.93
35649;BME280;21768;48.562;13.414;2024-03-23T04:47:18;96525.72;;;9.06;72.84
35649;BME280;21768;48.562;13.414;2024-03-23T04:49:45;96519.47;;;9.00;72.89
35649;BME280;21768;48.562;13.414;2024-03-23T04:52:10;96522.59;;;8.96;72.98
35649;BME280;21768;48.562;13.414;2024-03-23T04:54:36;96522.59;;;8.96;73.15
35649;BME280;21768;48.562;13.414;2024-03-23T04:57:01;96512.53;;;8.96;73.08
35649;BME280;21768;48.562;13.414;2024-03-23T04:59:27;96513.22;;;8.93;73.06
35649;BME280;21768;48.562;13.414;2024-03-23T05:01:52;96505.53;;;8.90;73.25
35649;BME280;21768;48.562;13.414;2024-03-23T05:04:18;96505.53;;;8.90;73.16
35649;BME280;21768;48.562;13.414;2024-03-23T05:06:44;96499.53;;;8.88;72.87
35649;BME280;21768;48.562;13.414;2024-03-23T05:09:09;96505.25;;;8.85;73.08
35649;BME280;21768;48.562;13.414;2024-03-23T05:11:40;96505.06;;;8.82;72.92
35649;BME280;21768;48.562;13.414;2024-03-23T05:14:07;96496.75;;;8.83;73.17
35649;BME280;21768;48.562;13.414;2024-03-23T05:16:33;96499.44;;;8.86;73.06
35649;BME280;21768;48.562;13.414;2024-03-23T05:18:58;96494.31;;;8.85;73.13
35649;BME280;21768;48.562;13.414;2024-03-23T05:21:24;96484.28;;;8.85;72.90
35649;BME280;21768;48.562;13.414;2024-03-23T05:23:49;96490.84;;;8.83;72.90
35649;BME280;21768;48.562;13.414;2024-03-23T05:26:15;96484.09;;;8.82;73.04
35649;BME280;21768;48.562;13.414;2024-03-23T05:28:40;96475.59;;;8.80;72.96
35649;BME280;21768;48.562;13.414;2024-03-23T05:31:06;96468.81;;;8.79;73.07
35649;BME280;21768;48.562;13.414;2024-03-23T05:33:31;96462.94;;;8.78;73.46
35649;BME280;21768;48.562;13.414;2024-03-23T05:35:58;96461.19;;;8.77;73.61
35649;BME280;21768;48.562;13.414;2024-03-23T05:38:23;96445.41;;;8.80;73.63
35649;BME280;21768;48.562;13.414;2024-03-23T05:40:57;96442.28;;;8.84;73.80
35649;BME280;21768;48.562;13.414;2024-03-23T05:43:24;96437.94;;;8.96;73.50
35649;BME280;21768;48.562;13.414;2024-03-23T05:45:57;96439.13;;;9.03;73.43
35649;BME280;21768;48.562;13.414;2024-03-23T05:48:23;96437.06;;;9.10;73.39
35649;BME280;21768;48.562;13.414;2024-03-23T05:50:49;96445.84;;;9.18;73.42
35649;BME280;21768;48.562;13.414;2024-03-23T05:53:16;96429.69;;;9.30;73.36
35649;BME280;21768;48.562;13.414;2024-03-23T05:55:42;96422.72;;;9.40;73.28
35649;BME280;21768;48.562;13.414;2024-03-23T05:58:07;96410.28;;;9.43;73.13
35649;BME280;21768;48.562;13.414;2024-03-23T06:00:33;96399.50;;;9.46;73.30
35649;BME280;21768;48.562;13.414;2024-03-23T06:02:58;96395.59;;;9.51;73.12
35649;BME280;21768;48.562;13.414;2024-03-23T06:05:24;96402.53;;;9.55;73.00
35649;BME280;21768;48.562;13.414;2024-03-23T06:07:49;96407.56;;;9.55;72.72
35649;BME280;21768;48.562;13.414;2024-03-23T06:10:15;96409.47;;;9.59;73.05
35649;BME280;21768;48.562;13.414;2024-03-23T06:12:41;96403.47;;;9.73;72.71
35649;BME280;21768;48.562;13.414;2024-03-23T06:15:07;96401.59;;;9.85;nan
35649;BME280;21768;48.562;13.414;2024-03-23T06:17:36;96393.22;;;10.03;72.38
35649;BME280;21768;48.562;13.414;2024-03-23T06:20:02;96394.41;;;10.09;72.02
35649;BME280;21768;48.562;13.414;2024-03-23T06:22:27;96388.78;;;10.15;71.78
35649;BME280;21768;48.562;13.414;2024-03-23T06:24:53;96383.91;;;10.18;71.89
35649;BME280;21768;48.562;13.414;2024-03-23T06:27:18;96378.34;;;10.23;71.88
35649;BME280;21768;48.562;13.414;2024-03-23T06:29:44;96371.97;;;10.30;71.80
35649;BME280;21768;48.562;13.414;2024-03-23T06:32:09;96368.88;;;10.36;71.75
35649;BME280;21768;48.562;13.414;2024-03-23T06:34:35;96370.00;;;10.42;71.36
35649;BME280;21768;48.562;13.414;2024-03-23T06:37:00;96375.38;;;10.48;71.31
35649;BME280;21768;48.562;13.414;2024-03-23T06:39:26;96380.00;;;10.57;70.94
35649;BME280;21768;48.562;13.414;2024-03-23T06:41:53;96377.69;;;10.62;70.61
35649;BME280;21768;48.562;13.414;2024-03-23T06:44:19;96378.41;;;10.77;70.32
35649;BME280;21768;48.562;13.414;2024-03-23T06:46:45;96377.28;;;10.88;70.26
35649;BME280;21768;48.562;13.414;2024-03-23T06:49:11;96395.63;;;11.03;69.94
35649;BME280;21768;48.562;13.414;2024-03-23T06:51:36;96388.91;;;11.21;69.92
35649;BME280;21768;48.562;13.414;2024-03-23T06:54:06;96385.69;;;11.43;69.68
35649;BME280;21768;48.562;13.414;2024-03-23T06:56:31;96367.50;;;11.50;69.48
35649;BME280;21768;48.562;13.414;2024-03-23T06:58:58;96363.16;;;11.48;69.12
35649;BME280;21768;48.562;13.414;2024-03-23T07:01:23;96364.91;;;11.49;69.38
35649;BME280;21768;48.562;13.414;2024-03-23T07:03:49;96357.00;;;11.61;68.89
35649;BME280;21768;48.562;13.414;2024-03-23T07:06:14;96364.56;;;11.78;68.95
35649;BME280;21768;48.562;13.414;2024-03-23T07:08:40;96354.16;;;11.91;68.48
35649;BME280;21768;48.562;13.414;2024-03-23T07:11:06;96341.91;;;12.01;68.15
35649;BME280;21768;48.562;13.414;2024-03-23T07:13:31;96346.09;;;12.00;67.64
35649;BME280;21768;48.562;13.414;2024-03-23T07:15:57;96333.41;;;11.99;67.78
35649;BME280;21768;48.562;13.414;2024-03-23T07:18:23;96331.22;;;12.06;67.61
35649;BME280;21768;48.562;13.414;2024-03-23T07:20:56;96330.69;;;12.15;67.70
35649;BME280;21768;48.562;13.414;2024-03-23T07:23:26;96320.97;;;12.24;67.70
35649;BME280;21768;48.562;13.414;2024-03-23T07:26:05;96308.78;;;12.35;67.94
35649;BME280;21768;48.562;13.414;2024-03-23T07:28:31;96288.28;;;12.49;67.32
35649;BME280;21768;48.562;13.414;2024-03-23T07:33:30;96285.88;;;12.75;66.83
35649;BME280;21768;48.562;13.414;2024-03-23T07:35:56;96287.31;;;12.90;66.62
35649;BME280;21768;48.562;13.414;2024-03-23T07:38:21;96260.97;;;13.08;66.32
35649;BME280;21768;48.562;13.414;2024-03-23T07:40:47;96272.91;;;13.33;66.17
35649;BME280;21768;48.562;13.414;2024-03-23T07:43:15;96275.25;;;13.52;65.98
35649;BME280;21768;48.562;13.414;2024-03-23T07:45:41;96270.03;;;13.71;65.56
35649;BME280;21768;48.562;13.414;2024-03-23T07:48:07;96281.03;;;13.97;64.60
35649;BME280;21768;48.562;13.414;2024-03-23T07:50:32;96276.13;;;14.27;63.50
35649;BME280;21768;48.562;13.414;2024-03-23T07:52:57;96270.50;;;14.62;62.64
35649;BME280;21768;48.562;13.414;2024-03-23T07:55:23;96262.38;;;15.01;61.49
35649;BME280;21768;48.562;13.414;2024-03-23T07:57:51;96251.31;;;15.92;58.97
35649;BME280;21768;48.562;13.414;2024-03-23T08:00:16;96239.78;;;17.16;55.81
35649;BME280;21768;48.562;13.414;2024-03-23T08:02:42;96239.47;;;18.36;52.44
35649;BME280;21768;48.562;13.414;2024-03-23T08:05:08;96234.47;;;18.98;50.93
35649;BME280;21768;48.562;13.414;2024-03-23T08:07:34;96224.75;;;19.41;47.75
35649;BME280;21768;48.562;13.414;2024-03-23T08:09:59;96225.59;;;18.73;48.20
35649;BME280;21768;48.562;13.414;2024-03-23T08:12:25;96216.97;;;19.30;46.81
35649;BME280;21768;48.562;13.414;2024-03-23T08:14:53;96212.81;;;20.21;43.66
35649;BME280;21768;48.562;13.414;2024-03-23T08:17:19;96202.25;;;21.00;42.03
35649;BME280;21768;48.562;13.414;2024-03-23T08:19:44;96197.47;;;22.16;39.70
35649;BME280;21768;48.562;13.414;2024-03-23T08:22:10;96195.22;;;23.97;37.75
35649;BME280;21768;48.562;13.414;2024-03-23T08:24:35;96183.00;;;25.14;34.93
35649;BME280;21768;48.562;13.414;2024-03-23T08:27:00;96184.13;;;25.64;34.38
35649;BME280;21768;48.562;13.414;2024-03-23T08:29:26;96191.75;;;25.73;33.06
35649;BME280;21768;48.562;13.414;2024-03-23T08:31:52;96178.91;;;26.24;32.86
35649;BME280;21768;48.562;13.414;2024-03-23T08:34:17;96176.63;;;26.05;31.78
35649;BME280;21768;48.562;13.414;2024-03-23T08:36:43;96180.19;;;25.32;33.16
35649;BME280;21768;48.562;13.414;2024-03-23T08:39:09;96176.66;;;24.63;33.70
35649;BME280;21768;48.562;13.414;2024-03-23T08:41:34;96187.91;;;23.14;35.42
35649;BME280;21768;48.562;13.414;2024-03-23T08:44:01;96192.28;;;21.94;37.22
35649;BME280;21768;48.562;13.414;2024-03-23T08:46:26;96184.44;;;21.35;38.77
35649;BME280;21768;48.562;13.414;2024-03-23T08:48:52;96193.69;;;21.04;38.83
35649;BME280;21768;48.562;13.414;2024-03-23T08:51:18;96185.91;;;20.86;39.74
35649;BME280;21768;48.562;13.414;2024-03-23T08:53:45;96218.00;;;20.29;39.72
35649;BME280;21768;48.562;13.414;2024-03-23T08:56:11;96226.66;;;19.57;41.41
35649;BME280;21768;48.562;13.414;2024-03-23T08:58:37;96237.94;;;19.03;42.95
35649;BME280;21768;48.562;13.414;2024-03-23T09:01:05;96250.94;;;18.59;45.20
35649;BME280;21768;48.562;13.414;2024-03-23T09:03:31;96250.13;;;18.11;46.77
35649;BME280;21768;48.562;13.414;2024-03-23T09:05:57;96257.06;;;17.71;48.74
35649;BME280;21768;48.562;13.414;2024-03-23T09:08:24;96265.63;;;17.32;49.56
35649;BME280;21768;48.562;13.414;2024-03-23T09:10:52;96272.66;;;17.02;49.28
35649;BME280;21768;48.562;13.414;2024-03-23T09:13:17;96284.78;;;16.75;49.75
35649;BME280;21768;48.562;13.414;2024-03-23T09:15:49;96280.06;;;16.55;50.49
35649;BME280;21768;48.562;13.414;2024-03-23T09:18:14;96303.38;;;16.38;50.82
35649;BME280;21768;48.562;13.414;2024-03-23T09:20:40;96292.50;;;16.10;52.00
35649;BME280;21768;48.562;13.414;2024-03-23T09:23:05;96340.09;;;15.81;52.88
35649;BME280;21768;48.562;13.414;2024-03-23T09:25:30;96378.19;;;15.51;55.22
35649;BME280;21768;48.562;13.414;2024-03-23T09:27:56;96403.41;;;15.17;57.87
35649;BME280;21768;48.562;13.414;2024-03-23T09:30:21;96431.88;;;14.80;59.42
35649;BME280;21768;48.562;13.414;2024-03-23T09:32:47;96421.94;;;14.38;60.31
35649;BME280;21768;48.562;13.414;2024-03-23T09:35:13;96438.28;;;13.97;61.16
35649;BME280;21768;48.562;13.414;2024-03-23T09:37:38;96440.53;;;13.45;61.32
35649;BME280;21768;48.562;13.414;2024-03-23T09:40:10;96457.44;;;13.03;62.17
35649;BME280;21768;48.562;13.414;2024-03-23T09:42:39;96450.53;;;12.78;62.75
35649;BME280;21768;48.562;13.414;2024-03-23T09:45:06;96462.53;;;12.63;64.01
35649;BME280;21768;48.562;13.414;2024-03-23T09:47:35;96466.50;;;12.56;64.29
35649;BME280;21768;48.562;13.414;2024-03-23T09:50:00;96466.50;;;12.56;64.70
35649;BME280;21768;48.562;13.414;2024-03-23T09:52:26;96463.91;;;12.54;64.84
35649;BME280;21768;48.562;13.414;2024-03-23T09:54:51;96463.63;;;12.48;64.91
35649;BME280;21768;48.562;13.414;2024-03-23T09:57:17;96461.03;;;12.47;65.17
35649;BME280;21768;48.562;13.414;2024-03-23T09:59:42;96455.84;;;12.44;64.76
35649;BME280;21768;48.562;13.414;2024-03-23T10:02:08;96466.56;;;12.38;64.85
35649;BME280;21768;48.562;13.414;2024-03-23T10:04:42;96459.66;;;12.34;64.94
35649;BME280;21768;48.562;13.414;2024-03-23T10:07:18;96462.84;;;12.30;65.18
35649;BME280;21768;48.562;13.414;2024-03-23T10:09:43;96474.44;;;12.25;65.25
35649;BME280;21768;48.562;13.414;2024-03-23T10:12:10;96484.13;;;12.16;66.06
35649;BME280;21768;48.562;13.414;2024-03-23T10:14:36;96472.84;;;12.08;66.19
35649;BME280;21768;48.562;13.414;2024-03-23T10:17:21;96481.28;;;12.08;66.02
35649;BME280;21768;48.562;13.414;2024-03-23T10:19:53;96502.38;;;12.09;66.34
35649;BME280;21768;48.562;13.414;2024-03-23T10:22:22;96505.22;;;11.97;66.88
35649;BME280;21768;48.562;13.414;2024-03-23T10:24:49;96501.69;;;11.93;67.34
35649;BME280;21768;48.562;13.414;2024-03-23T10:27:17;96519.31;;;11.92;67.22
35649;BME280;21768;48.562;13.414;2024-03-23T10:29:43;96527.22;;;11.80;67.45
35649;BME280;21768;48.562;13.414;2024-03-23T10:32:10;96527.75;;;11.75;67.87
35649;BME280;21768;48.562;13.414;2024-03-23T10:34:37;96524.22;;;11.71;67.75
35649;BME280;21768;48.562;13.414;2024-03-23T10:37:03;96529.13;;;11.68;67.63
35649;BME280;21768;48.562;13.414;2024-03-23T10:39:32;96535.06;;;11.69;67.92
35649;BME280;21768;48.562;13.414;2024-03-23T10:42:03;96530.72;;;11.66;67.57
35649;BME280;21768;48.562;13.414;2024-03-23T10:44:29;96527.25;;;11.64;67.94
35649;BME280;21768;48.562;13.414;2024-03-23T10:46:56;96527.13;;;11.61;67.89
35649;BME280;21768;48.562;13.414;2024-03-23T10:49:35;96525.25;;;11.57;67.88
35649;BME280;21768;48.562;13.414;2024-03-23T10:52:04;96524.97;;;11.51;68.14
35649;BME280;21768;48.562;13.414;2024-03-23T10:54:31;96520.56;;;11.47;67.85
35649;BME280;21768;48.562;13.414;2024-03-23T10:59:24;96526.72;;;11.34;68.29
35649;BME280;21768;48.562;13.414;2024-03-23T11:02:02;96534.56;;;11.40;68.41
35649;BME280;21768;48.562;13.414;2024-03-23T11:04:38;96530.50;;;11.44;68.60
35649;BME280;21768;48.562;13.414;2024-03-23T11:09:54;96542.72;;;11.52;68.30
35649;BME280;21768;48.562;13.414;2024-03-23T11:14:45;96541.06;;;11.53;68.82
35649;BME280;21768;48.562;13.414;2024-03-23T11:17:11;96547.56;;;11.48;68.64
35649;BME280;21768;48.562;13.414;2024-03-23T11:19:37;96548.34;;;11.47;68.97
35649;BME280;21768;48.562;13.414;2024-03-23T11:22:05;96553.69;;;11.53;68.97
35649;BME280;21768;48.562;13.414;2024-03-23T11:24:32;96553.03;;;11.57;68.73
35649;BME280;21768;48.562;13.414;2024-03-23T11:26:58;96556.69;;;11.64;68.66
35649;BME280;21768;48.562;13.414;2024-03-23T11:29:29;96549.81;;;11.77;68.98
35649;BME280;21768;48.562;13.414;2024-03-23T11:31:55;96561.94;;;11.84;68.72
35649;BME280;21768;48.562;13.414;2024-03-23T11:34:21;96551.69;;;11.81;68.32
35649;BME280;21768;48.562;13.414;2024-03-23T11:36:47;96552.09;;;11.90;68.65
35649;BME280;21768;48.562;13.414;2024-03-23T11:39:18;96556.44;;;11.93;68.94
35649;BME280;21768;48.562;13.414;2024-03-23T11:41:51;96553.66;;;11.87;68.65
35649;BME280;21768;48.562;13.414;2024-03-23T11:44:22;96552.88;;;11.89;68.72
35649;BME280;21768;48.562;13.414;2024-03-23T11:46:48;96558.38;;;11.99;68.14
35649;BME280;21768;48.562;13.414;2024-03-23T11:49:25;96557.69;;;11.83;68.61
35649;BME280;21768;48.562;13.414;2024-03-23T11:51:52;96560.78;;;11.78;69.05
35649;BME280;21768;48.562;13.414;2024-03-23T11:54:24;96561.81;;;11.81;68.94
35649;BME280;21768;48.562;13.414;2024-03-23T11:57:04;96558.63;;;11.85;68.59
35649;BME280;21768;48.562;13.414;2024-03-23T12:02:07;96563.69;;;11.85;67.71
35649;BME280;21768;48.562;13.414;2024-03-23T12:04:33;96555.16;;;11.83;67.98
35649;BME280;21768;48.562;13.414;2024-03-23T12:07:15;96547.84;;;11.89;67.76
35649;BME280;21768;48.562;13.414;2024-03-23T12:09:43;96550.97;;;11.84;67.13
35649;BME280;21768;48.562;13.414;2024-03-23T12:12:16;96558.56;;;11.84;66.16
35649;BME280;21768;48.562;13.414;2024-03-23T12:14:43;96565.53;;;11.89;66.08
35649;BME280;21768;48.562;13.414;2024-03-23T12:17:13;96562.63;;;12.00;65.79
35649;BME280;21768;48.562;13.414;2024-03-23T12:19:39;96563.31;;;12.15;65.21
35649;BME280;21768;48.562;13.414;2024-03-23T12:22:05;96550.88;;;12.19;64.62
35649;BME280;21768;48.562;13.414;2024-03-23T12:24:32;96558.94;;;12.11;63.75
35649;BME280;21768;48.562;13.414;2024-03-23T12:27:04;96553.28;;;12.16;64.37
35649;BME280;21768;48.562;13.414;2024-03-23T12:29:34;96560.03;;;12.35;64.11
35649;BME280;21768;48.562;13.414;2024-03-23T12:32:02;96562.56;;;12.35;62.46
35649;BME280;21768;48.562;13.414;2024-03-23T12:34:31;96593.44;;;12.28;63.85
35649;BME280;21768;48.562;13.414;2024-03-23T12:37:02;96583.09;;;12.23;64.15
35649;BME280;21768;48.562;13.414;2024-03-23T12:39:28;96603.53;;;12.09;63.96
35649;BME280;21768;48.562;13.414;2024-03-23T12:41:53;96606.97;;;11.75;62.71
35649;BME280;21768;48.562;13.414;2024-03-23T12:44:19;96616.38;;;11.44;62.66
35649;BME280;21768;48.562;13.414;2024-03-23T12:46:45;96629.19;;;11.13;63.19
35649;BME280;21768;48.562;13.414;2024-03-23T12:49:11;96620.78;;;10.64;64.74
35649;BME280;21768;48.562;13.414;2024-03-23T12:51:36;96626.56;;;10.30;66.10
35649;BME280;21768;48.562;13.414;2024-03-23T12:54:03;96614.63;;;10.11;66.06
35649;BME280;21768;48.562;13.414;2024-03-23T12:56:28;96612.47;;;10.03;66.09
35649;BME280;21768;48.562;13.414;2024-03-23T12:58:57;96613.50;;;9.92;66.15
35649;BME280;21768;48.562;13.414;2024-03-23T13:01:26;96610.69;;;9.85;66.63
35649;BME280;21768;48.562;13.414;2024-03-23T13:03:52;96604.00;;;9.86;66.55
35649;BME280;21768;48.562;13.414;2024-03-23T13:06:18;96596.84;;;9.94;66.96
35649;BME280;21768;48.562;13.414;2024-03-23T13:08:47;96594.13;;;10.05;66.88
35649;BME280;21768;48.562;13.414;2024-03-23T13:11:15;96592.34;;;10.19;66.41
35649;BME280;21768;48.562;13.414;2024-03-23T13:13:41;96579.47;;;10.29;66.33
35649;BME280;21768;48.562;13.414;2024-03-23T13:16:07;96599.63;;;10.45;66.46
35649;BME280;21768;48.562;13.414;2024-03-23T13:18:32;96613.06;;;10.61;65.69
35649;BME280;21768;48.562;13.414;2024-03-23T13:20:58;96612.25;;;10.62;65.55
35649;BME280;21768;48.562;13.414;2024-03-23T13:23:24;96614.53;;;10.57;65.23
35649;BME280;21768;48.562;13.414;2024-03-23T13:25:54;96604.81;;;10.65;65.77
35649;BME280;21768;48.562;13.414;2024-03-23T13:28:21;96612.81;;;10.72;65.42
35649;BME280;21768;48.562;13.414;2024-03-23T13:30:56;96606.72;;;10.69;65.00
35649;BME280;21768;48.562;13.414;2024-03-23T13:33:23;96615.56;;;10.77;65.37
35649;BME280;21768;48.562;13.414;2024-03-23T13:35:57;96625.97;;;10.83;65.18
35649;BME280;21768;48.562;13.414;2024-03-23T13:38:23;96629.72;;;10.91;64.74
35649;BME280;21768;48.562;13.414;2024-03-23T13:43:18;96624.41;;;10.85;63.71
35649;BME280;21768;48.562;13.414;2024-03-23T13:45:44;96633.03;;;10.90;63.95
35649;BME280;21768;48.562;13.414;2024-03-23T13:48:10;96648.06;;;10.87;63.42
35649;BME280;21768;48.562;13.414;2024-03-23T13:50:35;96633.38;;;10.80;63.22
35649;BME280;21768;48.562;13.414;2024-03-23T13:53:01;96637.63;;;10.65;62.45
35649;BME280;21768;48.562;13.414;2024-03-23T13:55:27;96643.78;;;10.53;61.75
35649;BME280;21768;48.562;13.414;2024-03-23T13:57:52;96653.94;;;10.39;60.74